createdAt,value
2019-04-21T00:00:31.724Z,12.88
2019-04-21T00:03:40.693Z,12.75
2019-04-21T00:06:58.722Z,12.69
2019-04-21T00:09:58.197Z,12.94
2019-04-21T00:12:56.208Z,12.75
2019-04-21T00:15:53.202Z,12.56
2019-04-21T00:19:14.539Z,13.13
2019-04-21T00:22:23.514Z,12.94
2019-04-21T00:25:32.350Z,12.75
2019-04-21T00:28:42.568Z,12.81
2019-04-21T00:31:34.112Z,12.75
2019-04-21T00:34:23.831Z,12.88
2019-04-21T00:37:46.993Z,12.75
2019-04-21T00:40:53.840Z,12.88
2019-04-21T00:43:44.752Z,12.94
2019-04-21T00:46:51.695Z,12.94
2019-04-21T00:50:00.269Z,12.56
2019-04-21T00:53:10.477Z,12.69
2019-04-21T00:56:21.854Z,12.81
2019-04-21T00:59:20.111Z,12.25
2019-04-21T01:02:26.378Z,12.56
2019-04-21T01:05:27.846Z,12.81
2019-04-21T01:08:26.793Z,12.25
2019-04-21T01:11:31.837Z,12.13
2019-04-21T01:14:45.580Z,12.50
2019-04-21T01:17:35.266Z,12.00
2019-04-21T01:20:19.489Z,12.13
2019-04-21T01:23:21.373Z,11.94
2019-04-21T01:26:34.016Z,12.13
2019-04-21T01:29:46.954Z,12.00
2019-04-21T01:32:49.775Z,12.06
2019-04-21T01:35:47.916Z,12.00
2019-04-21T01:39:03.807Z,11.94
2019-04-21T01:42:01.563Z,11.81
2019-04-21T01:45:04.399Z,11.81
2019-04-21T01:48:01.295Z,11.81
2019-04-21T01:51:07.579Z,12.00
2019-04-21T01:54:22.036Z,12.13
2019-04-21T01:57:27.949Z,11.69
2019-04-21T02:00:52.048Z,11.56
2019-04-21T02:03:58.388Z,11.56
2019-04-21T02:07:02.865Z,11.38
2019-04-21T02:10:05.069Z,11.00
2019-04-21T02:13:04.290Z,11.25
2019-04-21T02:16:11.283Z,11.12
2019-04-21T02:19:11.435Z,11.44
2019-04-21T02:22:19.269Z,11.50
2019-04-21T02:25:23.891Z,11.38
2019-04-21T02:28:29.833Z,10.88
2019-04-21T02:31:40.513Z,10.88
2019-04-21T02:37:51.221Z,10.75
2019-04-21T02:40:46.614Z,10.69
2019-04-21T02:43:56.057Z,10.75
2019-04-21T02:56:00.723Z,10.31
2019-04-21T02:59:18.705Z,10.00
2019-04-21T03:02:42.252Z,10.00
2019-04-21T03:05:50.847Z,9.94
2019-04-21T03:11:56.137Z,10.25
2019-04-21T03:15:04.298Z,10.25
2019-04-21T03:18:06.340Z,10.44
2019-04-21T03:21:15.442Z,10.19
2019-04-21T03:27:17.199Z,10.38
2019-04-21T03:30:52.963Z,10.00
2019-04-21T03:36:43.792Z,9.75
2019-04-21T03:39:23.085Z,9.94
2019-04-21T03:42:38.556Z,9.75
2019-04-21T03:45:32.636Z,9.69
2019-04-21T03:54:49.109Z,9.56
2019-04-21T03:57:58.011Z,9.75
2019-04-21T04:08:17.230Z,9.38
2019-04-21T04:11:17.003Z,9.44
2019-04-21T04:14:12.728Z,9.81
2019-04-21T04:20:19.171Z,9.56
2019-04-21T04:26:26.069Z,9.63
2019-04-21T04:32:28.511Z,9.63
2019-04-21T04:35:38.414Z,9.75
2019-04-21T04:38:41.627Z,9.81
2019-04-21T04:45:15.744Z,9.81
2019-04-21T04:48:01.965Z,9.56
2019-04-21T04:54:03.911Z,9.63
2019-04-21T05:00:18.191Z,10.19
2019-04-21T05:06:42.633Z,9.81
2019-04-21T05:09:37.646Z,10.00
2019-04-21T05:12:29.256Z,10.13
2019-04-21T05:15:38.295Z,9.88
2019-04-21T05:18:45.208Z,10.00
2019-04-21T05:24:33.200Z,10.06
2019-04-21T05:27:38.648Z,9.88
2019-04-21T05:31:07.695Z,10.25
2019-04-21T05:37:25.730Z,10.00
2019-04-21T05:40:23.635Z,10.38
2019-04-21T05:43:32.561Z,10.63
2019-04-21T05:46:41.688Z,10.44
2019-04-21T05:50:02.910Z,10.50
2019-04-21T05:53:08.210Z,10.75
2019-04-21T05:56:14.292Z,11.19
2019-04-21T05:59:13.500Z,11.00
2019-04-21T06:05:28.184Z,11.19
2019-04-21T06:08:25.718Z,11.25
2019-04-21T06:11:45.749Z,11.25
2019-04-21T06:14:42.135Z,11.69
2019-04-21T06:17:36.163Z,11.56
2019-04-21T06:20:44.798Z,11.88
2019-04-21T06:23:43.572Z,11.81
2019-04-21T06:29:50.226Z,11.94
2019-04-21T06:32:52.637Z,11.88
2019-04-21T06:36:31.085Z,12.19
2019-04-21T06:39:23.038Z,12.50
2019-04-21T06:42:18.602Z,12.50
2019-04-21T06:48:34.252Z,13.13
2019-04-21T06:51:29.312Z,13.31
2019-04-21T06:54:40.985Z,13.62
2019-04-21T06:57:41.746Z,13.62
2019-04-21T07:00:45.599Z,13.62
2019-04-21T07:03:48.768Z,13.69
2019-04-21T07:06:54.624Z,13.56
2019-04-21T07:09:57.213Z,13.81
2019-04-21T07:12:51.017Z,14.13
2019-04-21T07:19:07.187Z,13.56
2019-04-21T07:22:03.182Z,13.81
2019-04-21T07:25:10.460Z,14.25
2019-04-21T07:28:10.603Z,14.31
2019-04-21T07:31:24.876Z,14.31
2019-04-21T07:34:21.337Z,14.38
2019-04-21T07:37:18.543Z,14.13
2019-04-21T07:40:22.289Z,14.13
2019-04-21T07:43:20.438Z,14.44
2019-04-21T07:46:22.358Z,15.06
2019-04-21T07:49:58.762Z,15.31
2019-04-21T07:55:45.840Z,15.31
2019-04-21T07:59:05.540Z,15.13
2019-04-21T08:02:10.295Z,15.38
2019-04-21T08:05:20.056Z,15.63
2019-04-21T08:08:12.148Z,15.88
2019-04-21T08:11:15.262Z,16.00
2019-04-21T08:14:25.397Z,16.06
2019-04-21T08:17:24.665Z,15.81
2019-04-21T08:20:42.526Z,16.19
2019-04-21T08:23:34.142Z,16.75
2019-04-21T08:26:38.339Z,17.25
2019-04-21T08:29:40.826Z,17.50
2019-04-21T08:36:04.782Z,18.62
2019-04-21T08:38:48.434Z,19.56
2019-04-21T08:41:50.403Z,18.75
2019-04-21T08:44:54.395Z,19.44
2019-04-21T08:47:59.176Z,19.69
2019-04-21T08:51:16.725Z,20.37
2019-04-21T08:54:09.540Z,19.94
2019-04-21T08:57:24.554Z,20.06
2019-04-21T09:03:49.526Z,21.37
2019-04-21T09:09:54.443Z,22.19
2019-04-21T09:12:51.834Z,22.00
2019-04-21T09:15:58.008Z,21.81
2019-04-21T09:18:59.743Z,21.94
2019-04-21T09:22:07.075Z,20.75
2019-04-21T09:25:14.562Z,21.56
2019-04-21T09:28:14.631Z,21.56
2019-04-21T09:31:00.918Z,21.94
2019-04-21T09:34:03.188Z,22.69
2019-04-21T09:37:15.348Z,22.44
2019-04-21T09:40:08.845Z,22.69
2019-04-21T09:43:13.447Z,22.25
2019-04-21T09:46:14.179Z,22.31
2019-04-21T09:49:21.820Z,23.25
2019-04-21T09:52:25.111Z,23.94
2019-04-21T09:55:26.236Z,24.06
2019-04-21T09:58:33.121Z,23.25
2019-04-21T10:01:45.094Z,23.06
2019-04-21T10:04:33.503Z,23.94
2019-04-21T10:07:39.054Z,24.56
2019-04-21T10:10:39.977Z,24.56
2019-04-21T10:13:41.932Z,24.37
2019-04-21T10:17:04.989Z,25.06
2019-04-21T10:20:07.485Z,24.56
2019-04-21T10:23:09.219Z,25.44
2019-04-21T10:26:10.608Z,25.00
2019-04-21T10:29:18.942Z,25.06
2019-04-21T10:32:15.516Z,25.88
2019-04-21T10:35:20.741Z,25.44
2019-04-21T10:38:32.752Z,25.25
2019-04-21T10:41:23.372Z,26.25
2019-04-21T10:44:27.225Z,25.50
2019-04-21T10:47:29.324Z,25.56
2019-04-21T10:50:31.411Z,25.88
2019-04-21T10:53:36.699Z,26.37
2019-04-21T10:56:42.398Z,26.56
2019-04-21T10:59:46.184Z,26.75
2019-04-21T11:02:48.828Z,26.87
2019-04-21T11:05:50.738Z,27.06
2019-04-21T11:08:55.413Z,27.00
2019-04-21T11:11:55.771Z,27.44
2019-04-21T11:14:57.223Z,27.44
2019-04-21T11:17:59.742Z,27.94
2019-04-21T11:21:02.813Z,28.50
2019-04-21T11:24:05.940Z,28.19
2019-04-21T11:27:08.833Z,27.13
2019-04-21T11:30:11.668Z,27.31
2019-04-21T11:33:13.186Z,27.31
2019-04-21T11:36:15.484Z,27.37
2019-04-21T11:39:39.107Z,27.87
2019-04-21T11:42:33.645Z,27.87
2019-04-21T11:45:36.724Z,27.50
2019-04-21T11:48:38.122Z,27.69
2019-04-21T11:51:40.687Z,27.37
2019-04-21T11:54:44.567Z,28.19
2019-04-21T11:57:49.469Z,27.87
2019-04-21T12:00:53.878Z,28.50
2019-04-21T12:03:55.723Z,28.75
2019-04-21T12:06:59.728Z,28.62
2019-04-21T12:10:01.650Z,28.44
2019-04-21T12:13:07.238Z,28.38
2019-04-21T12:16:08.127Z,28.38
2019-04-21T12:19:09.611Z,28.87
2019-04-21T12:22:19.308Z,28.56
2019-04-21T12:25:15.596Z,28.56
2019-04-21T12:28:17.412Z,28.12
2019-04-21T12:31:31.759Z,28.50
2019-04-21T12:34:34.299Z,28.81
2019-04-21T12:37:37.083Z,28.06
2019-04-21T12:40:39.688Z,28.44
2019-04-21T12:43:42.430Z,28.81
2019-04-21T12:46:44.053Z,28.56
2019-04-21T12:49:45.672Z,28.62
2019-04-21T12:52:47.427Z,28.19
2019-04-21T12:55:49.940Z,28.19
2019-04-21T12:58:51.482Z,28.31
2019-04-21T13:01:52.919Z,28.00
2019-04-21T13:04:55.775Z,28.06
2019-04-21T13:07:57.514Z,28.62
2019-04-21T13:11:00.091Z,28.38
2019-04-21T13:14:01.891Z,28.31
2019-04-21T13:17:03.522Z,28.00
2019-04-21T13:20:05.640Z,28.31
2019-04-21T13:23:08.116Z,28.56
2019-04-21T13:26:10.125Z,28.19
2019-04-21T13:29:12.770Z,28.00
2019-04-21T13:32:14.514Z,28.44
2019-04-21T13:35:17.092Z,28.44
2019-04-21T13:38:28.985Z,28.69
2019-04-21T13:41:36.698Z,28.44
2019-04-21T13:44:26.753Z,28.44
2019-04-21T13:47:28.375Z,28.25
2019-04-21T13:50:31.159Z,28.62
2019-04-21T13:53:34.336Z,28.50
2019-04-21T13:56:36.356Z,28.62
2019-04-21T13:59:38.410Z,28.50
2019-04-21T14:02:40.784Z,28.69
2019-04-21T14:05:42.520Z,28.56
2019-04-21T14:08:45.329Z,28.31
2019-04-21T14:11:47.418Z,28.44
2019-04-21T14:14:50.272Z,27.87
2019-04-21T14:17:52.906Z,27.94
2019-04-21T14:20:55.448Z,28.25
2019-04-21T14:23:59.127Z,28.38
2019-04-21T14:27:00.540Z,27.94
2019-04-21T14:30:02.890Z,27.94
2019-04-21T14:33:04.767Z,28.12
2019-04-21T14:36:06.561Z,28.06
2019-04-21T14:39:10.719Z,28.25
2019-04-21T14:42:12.147Z,27.75
2019-04-21T14:45:25.016Z,27.56
2019-04-21T14:48:55.026Z,27.75
2019-04-21T14:52:01.200Z,27.56
2019-04-21T14:55:14.383Z,27.13
2019-04-21T14:58:17.080Z,27.06
2019-04-21T15:01:19.839Z,27.25
2019-04-21T15:04:22.435Z,27.19
2019-04-21T15:07:25.453Z,27.00
2019-04-21T15:10:30.340Z,26.25
2019-04-21T15:13:30.161Z,26.19
2019-04-21T15:16:31.456Z,26.06
2019-04-21T15:19:34.842Z,25.94
2019-04-21T15:22:36.478Z,26.19
2019-04-21T15:25:38.525Z,26.25
2019-04-21T15:28:42.266Z,26.44
2019-04-21T15:31:44.760Z,26.50
2019-04-21T15:34:47.731Z,26.31
2019-04-21T15:37:49.832Z,25.94
2019-04-21T15:40:56.009Z,26.00
2019-04-21T15:43:54.553Z,26.00
2019-04-21T15:46:56.113Z,25.94
2019-04-21T15:50:04.694Z,25.94
2019-04-21T15:53:05.681Z,26.25
2019-04-21T15:56:29.112Z,26.44
2019-04-21T15:59:48.506Z,26.44
2019-04-21T16:02:50.836Z,26.37
2019-04-21T16:05:53.677Z,26.19
2019-04-21T16:08:57.495Z,26.25
2019-04-21T16:11:59.890Z,26.25
2019-04-21T16:15:02.793Z,26.06
2019-04-21T16:18:05.574Z,25.88
2019-04-21T16:21:08.297Z,25.81
2019-04-21T16:24:09.851Z,25.81
2019-04-21T16:27:12.665Z,25.81
2019-04-21T16:30:15.605Z,25.69
2019-04-21T16:33:17.110Z,25.88
2019-04-21T16:36:19.958Z,25.94
2019-04-21T16:39:21.555Z,25.75
2019-04-21T16:42:24.378Z,25.56
2019-04-21T16:45:26.423Z,25.37
2019-04-21T16:48:27.850Z,25.31
2019-04-21T16:51:29.246Z,25.06
2019-04-21T16:54:31.633Z,25.06
2019-04-21T16:57:58.421Z,24.87
2019-04-21T17:01:01.691Z,24.69
2019-04-21T17:03:58.305Z,24.63
2019-04-21T17:07:00.950Z,24.63
2019-04-21T17:10:04.522Z,24.63
2019-04-21T17:13:06.282Z,24.56
2019-04-21T17:16:38.558Z,24.37
2019-04-21T17:19:20.298Z,24.12
2019-04-21T17:22:15.664Z,23.81
2019-04-21T17:25:21.518Z,23.56
2019-04-21T17:28:22.147Z,23.06
2019-04-21T17:31:26.542Z,23.06
2019-04-21T17:34:31.643Z,23.06
2019-04-21T17:37:34.033Z,23.12
2019-04-21T17:40:37.881Z,23.12
2019-04-21T17:43:39.682Z,22.75
2019-04-21T17:46:51.107Z,22.75
2019-04-21T17:49:46.724Z,22.37
2019-04-21T17:52:58.136Z,22.44
2019-04-21T17:56:19.599Z,22.37
2019-04-21T17:59:28.165Z,22.25
2019-04-21T18:02:24.773Z,22.25
2019-04-21T18:05:29.409Z,22.13
2019-04-21T18:08:29.476Z,22.13
2019-04-21T18:11:28.965Z,22.31
2019-04-21T18:14:15.925Z,22.00
2019-04-21T18:17:18.634Z,21.56
2019-04-21T18:20:25.930Z,21.19
2019-04-21T18:23:47.213Z,20.94
2019-04-21T18:26:49.585Z,20.37
2019-04-21T18:29:46.390Z,20.19
2019-04-21T18:32:48.282Z,20.81
2019-04-21T18:36:30.551Z,20.75
2019-04-21T18:39:52.662Z,20.88
2019-04-21T18:43:16.018Z,20.69
2019-04-21T18:46:29.515Z,20.25
2019-04-21T18:49:13.210Z,20.44
2019-04-21T18:52:40.568Z,20.62
2019-04-21T18:55:34.365Z,19.94
2019-04-21T18:58:30.822Z,19.62
2019-04-21T19:01:35.204Z,19.94
2019-04-21T19:04:37.570Z,19.69
2019-04-21T19:08:01.614Z,20.19
2019-04-21T19:11:02.712Z,19.56
2019-04-21T19:14:28.902Z,19.44
2019-04-21T19:23:35.927Z,19.75
2019-04-21T19:26:30.083Z,19.50
2019-04-21T19:29:52.222Z,19.12
2019-04-21T19:32:39.071Z,19.06
2019-04-21T19:35:19.449Z,18.94
2019-04-21T19:38:31.639Z,19.25
2019-04-21T19:41:38.193Z,19.00
2019-04-21T19:44:47.861Z,19.25
2019-04-21T19:47:50.432Z,19.06
2019-04-21T19:50:52.621Z,19.06
2019-04-21T19:53:49.273Z,18.94
2019-04-21T19:56:40.892Z,18.75
2019-04-21T19:59:48.038Z,18.62
2019-04-21T20:02:45.579Z,18.44
2019-04-21T20:05:54.826Z,18.31
2019-04-21T20:09:10.922Z,18.31
2019-04-21T20:12:06.656Z,18.12
2019-04-21T20:15:20.018Z,18.25
2019-04-21T20:18:14.478Z,18.31
2019-04-21T20:21:04.051Z,18.19
2019-04-21T20:24:11.137Z,18.00
2019-04-21T20:27:17.647Z,17.87
2019-04-21T20:30:32.994Z,17.75
2019-04-21T20:33:50.120Z,17.87
2019-04-21T20:36:41.524Z,17.75
2019-04-21T20:39:27.593Z,17.94
2019-04-21T20:42:39.052Z,18.25
2019-04-21T20:45:49.259Z,18.44
2019-04-21T20:48:45.246Z,18.37
2019-04-21T20:51:53.905Z,18.44
2019-04-21T20:54:55.143Z,18.37
2019-04-21T20:57:55.230Z,18.19
2019-04-21T21:01:22.189Z,17.94
2019-04-21T21:04:01.750Z,17.44
2019-04-21T21:07:16.184Z,17.56
2019-04-21T21:10:10.916Z,17.00
2019-04-21T21:13:22.191Z,17.25
2019-04-21T21:16:24.144Z,16.94
2019-04-21T21:19:28.598Z,16.62
2019-04-21T21:22:22.732Z,16.50
2019-04-21T21:25:36.608Z,16.75
2019-04-21T21:28:26.607Z,16.44
2019-04-21T21:31:37.347Z,16.69
2019-04-21T21:35:01.238Z,16.69
2019-04-21T21:37:41.021Z,16.31
2019-04-21T21:40:42.207Z,16.31
2019-04-21T21:43:33.119Z,15.94
2019-04-21T21:46:49.978Z,15.94
2019-04-21T21:49:52.842Z,16.19
2019-04-21T21:52:52.463Z,15.38
2019-04-21T21:55:44.696Z,15.38
2019-04-21T21:58:48.430Z,15.25
2019-04-21T22:01:52.454Z,15.56
2019-04-21T22:05:01.160Z,15.44
2019-04-21T22:07:56.690Z,15.25
2019-04-21T22:10:59.057Z,15.25
2019-04-21T22:14:04.680Z,15.31
2019-04-21T22:17:21.449Z,14.94
2019-04-21T22:20:31.648Z,15.25
2019-04-21T22:23:25.441Z,15.50
2019-04-21T22:26:15.472Z,15.19
2019-04-21T22:29:17.067Z,14.94
2019-04-21T22:32:24.989Z,14.75
2019-04-21T22:35:28.485Z,14.94
2019-04-21T22:38:40.904Z,14.69
2019-04-21T22:41:35.556Z,14.94
2019-04-21T22:44:32.252Z,15.00
2019-04-21T22:47:36.450Z,14.75
2019-04-21T22:50:40.396Z,14.69
2019-04-21T22:53:47.251Z,14.63
2019-04-21T22:56:52.997Z,14.63
2019-04-21T22:59:54.902Z,14.87
2019-04-21T23:02:54.895Z,14.50
2019-04-21T23:05:55.949Z,14.56
2019-04-21T23:08:57.441Z,14.56
2019-04-21T23:12:00.992Z,14.56
2019-04-21T23:15:09.221Z,14.63
2019-04-21T23:18:24.953Z,14.63
2019-04-21T23:21:23.092Z,14.38
2019-04-21T23:24:34.533Z,14.38
2019-04-21T23:27:34.183Z,14.31
2019-04-21T23:30:45.418Z,14.31
2019-04-21T23:33:23.989Z,14.50
2019-04-21T23:36:29.625Z,14.19
2019-04-21T23:39:31.973Z,14.25
2019-04-21T23:42:38.004Z,13.81
2019-04-21T23:45:38.251Z,13.75
2019-04-21T23:48:56.066Z,13.38
2019-04-21T23:51:50.045Z,13.75
2019-04-21T23:54:45.300Z,13.94
2019-04-21T23:57:50.071Z,13.31
